createdAt,value
2023-03-12T00:01:18.841Z,86.24
2023-03-12T00:03:47.515Z,86.70
2023-03-12T00:06:16.623Z,86.40
2023-03-12T00:08:45.339Z,86.01
2023-03-12T00:11:16.428Z,86.56
2023-03-12T00:13:46.346Z,87.24
2023-03-12T00:16:16.651Z,86.70
2023-03-12T00:18:45.592Z,87.02
2023-03-12T00:21:13.948Z,86.84
2023-03-12T00:23:42.381Z,86.93
2023-03-12T00:26:13.260Z,87.07
2023-03-12T00:28:42.369Z,86.22
2023-03-12T00:31:21.568Z,86.18
2023-03-12T00:33:50.932Z,86.23
2023-03-12T00:36:21.328Z,86.50
2023-03-12T00:38:49.649Z,86.51
2023-03-12T00:41:19.642Z,86.49
2023-03-12T00:43:48.253Z,87.35
2023-03-12T00:46:18.476Z,88.16
2023-03-12T00:48:47.016Z,88.13
2023-03-12T00:51:15.419Z,87.73
2023-03-12T00:53:43.877Z,88.35
2023-03-12T00:56:12.648Z,88.12
2023-03-12T00:58:42.726Z,88.57
2023-03-12T01:01:11.370Z,88.22
2023-03-12T01:04:05.658Z,87.32
2023-03-12T01:06:33.951Z,87.90
2023-03-12T01:09:10.079Z,87.83
2023-03-12T01:11:39.272Z,88.20
2023-03-12T01:14:09.852Z,87.36
2023-03-12T01:16:38.229Z,87.62
2023-03-12T01:19:07.824Z,87.10
2023-03-12T01:21:36.144Z,87.02
2023-03-12T01:24:04.938Z,87.56
2023-03-12T01:26:33.315Z,86.84
2023-03-12T01:29:01.539Z,87.21
2023-03-12T01:31:29.911Z,87.95
2023-03-12T01:33:59.278Z,87.73
2023-03-12T01:36:30.742Z,87.90
2023-03-12T01:39:00.655Z,88.46
2023-03-12T01:41:33.063Z,88.00
2023-03-12T01:44:03.878Z,88.09
2023-03-12T01:46:36.428Z,87.73
2023-03-12T01:49:14.243Z,88.24
2023-03-12T01:51:47.820Z,87.98
2023-03-12T01:54:20.976Z,87.95
2023-03-12T01:56:50.596Z,87.96
2023-03-12T01:59:24.921Z,88.59
2023-03-12T02:01:53.825Z,88.85
2023-03-12T02:04:25.294Z,88.25
2023-03-12T02:07:04.392Z,88.67
2023-03-12T02:09:34.980Z,88.11
2023-03-12T02:12:03.212Z,87.88
2023-03-12T02:14:32.086Z,87.83
2023-03-12T02:17:00.656Z,88.22
2023-03-12T02:19:39.504Z,88.01
2023-03-12T02:22:10.138Z,88.53
2023-03-12T02:24:45.667Z,88.48
2023-03-12T02:27:17.648Z,88.80
2023-03-12T02:29:46.976Z,88.60
2023-03-12T02:32:23.048Z,89.36
2023-03-12T02:34:52.165Z,88.64
2023-03-12T02:37:21.075Z,88.73
2023-03-12T02:39:58.778Z,88.59
2023-03-12T02:42:29.034Z,88.72
2023-03-12T02:44:57.349Z,89.47
2023-03-12T02:47:26.486Z,89.18
2023-03-12T02:49:55.652Z,89.83
2023-03-12T02:52:23.928Z,89.45
2023-03-12T02:54:52.311Z,88.70
2023-03-12T02:57:20.971Z,88.62
2023-03-12T02:59:50.589Z,89.46
2023-03-12T03:02:19.067Z,89.57
2023-03-12T03:04:49.361Z,89.07
2023-03-12T03:07:18.356Z,89.17
2023-03-12T03:09:46.624Z,89.43
2023-03-12T03:12:39.662Z,89.67
2023-03-12T03:15:12.416Z,88.93
2023-03-12T03:17:41.613Z,89.63
2023-03-12T03:20:12.123Z,90.22
2023-03-12T03:22:40.655Z,90.01
2023-03-12T03:25:11.020Z,89.93
2023-03-12T03:27:39.313Z,90.03
2023-03-12T03:30:14.696Z,90.28
2023-03-12T03:32:46.355Z,90.94
2023-03-12T03:35:15.941Z,90.35
2023-03-12T03:37:44.197Z,91.48
2023-03-12T03:40:13.731Z,90.34
2023-03-12T03:42:42.372Z,91.13
2023-03-12T03:45:13.211Z,91.50
2023-03-12T03:47:44.044Z,91.71
2023-03-12T03:50:13.689Z,92.07
2023-03-12T03:52:41.937Z,91.40
2023-03-12T03:55:11.105Z,91.79
2023-03-12T03:57:40.469Z,91.68
2023-03-12T04:00:13.463Z,91.96
2023-03-12T04:02:46.432Z,92.30
2023-03-12T04:05:19.505Z,91.35
2023-03-12T04:07:49.230Z,92.69
2023-03-12T04:10:21.615Z,92.98
2023-03-12T04:12:50.018Z,92.28
2023-03-12T04:15:20.089Z,92.53
2023-03-12T04:17:49.971Z,92.55
2023-03-12T04:20:19.329Z,93.00
2023-03-12T04:22:47.783Z,92.77
2023-03-12T04:25:17.773Z,92.86
2023-03-12T04:27:46.118Z,93.07
2023-03-12T04:30:15.772Z,92.58
2023-03-12T04:32:47.545Z,92.46
2023-03-12T04:35:16.331Z,92.79
2023-03-12T04:37:44.705Z,93.21
2023-03-12T04:40:15.510Z,93.85
2023-03-12T04:42:43.915Z,93.67
2023-03-12T04:45:13.316Z,93.85
2023-03-12T04:47:47.450Z,92.99
2023-03-12T04:50:16.854Z,93.91
2023-03-12T04:52:45.472Z,92.98
2023-03-12T04:55:14.227Z,93.97
2023-03-12T04:57:42.895Z,93.63
2023-03-12T05:00:14.071Z,93.10
2023-03-12T05:02:48.907Z,93.66
2023-03-12T05:05:17.506Z,92.67
2023-03-12T05:07:45.824Z,92.86
2023-03-12T05:10:14.129Z,93.38
2023-03-12T05:12:42.500Z,93.19
2023-03-12T05:15:15.134Z,93.23
2023-03-12T05:17:44.916Z,93.84
2023-03-12T05:20:15.401Z,93.59
2023-03-12T05:22:44.189Z,92.11
2023-03-12T05:25:13.816Z,93.83
2023-03-12T05:27:45.276Z,94.34
2023-03-12T05:30:16.254Z,93.83
2023-03-12T05:32:44.931Z,94.01
2023-03-12T05:35:14.948Z,92.89
2023-03-12T05:37:44.954Z,94.02
2023-03-12T05:40:14.983Z,93.74
2023-03-12T05:42:43.708Z,94.87
2023-03-12T05:45:12.878Z,93.84
2023-03-12T05:47:45.924Z,94.17
2023-03-12T05:50:17.137Z,93.70
2023-03-12T05:52:45.826Z,94.07
2023-03-12T05:55:14.319Z,92.16
2023-03-12T05:57:43.452Z,92.63
2023-03-12T06:00:15.939Z,91.56
2023-03-12T06:02:52.260Z,91.78
2023-03-12T06:05:22.677Z,92.95
2023-03-12T06:07:51.390Z,93.42
2023-03-12T06:10:19.926Z,92.53
2023-03-12T06:12:48.112Z,91.93
2023-03-12T06:15:16.611Z,92.85
2023-03-12T06:17:44.924Z,92.59
2023-03-12T06:20:14.426Z,91.95
2023-03-12T06:22:44.036Z,90.73
2023-03-12T06:25:12.261Z,91.34
2023-03-12T06:27:42.045Z,89.73
2023-03-12T06:30:11.931Z,89.65
2023-03-12T06:32:40.145Z,91.09
2023-03-12T06:35:09.316Z,90.33
2023-03-12T06:37:37.659Z,90.87
2023-03-12T06:40:10.991Z,92.60
2023-03-12T06:42:39.193Z,92.43
2023-03-12T06:45:08.982Z,93.03
2023-03-12T06:47:37.524Z,92.86
2023-03-12T06:50:06.545Z,93.36
2023-03-12T06:52:34.736Z,92.81
2023-03-12T06:55:02.924Z,94.35
2023-03-12T06:57:32.468Z,93.96
2023-03-12T07:00:00.678Z,94.35
2023-03-12T07:02:29.001Z,94.81
2023-03-12T07:05:10.889Z,93.93
2023-03-12T07:07:39.856Z,94.65
2023-03-12T07:10:09.594Z,95.51
2023-03-12T07:12:39.329Z,96.86
2023-03-12T07:15:09.000Z,96.09
2023-03-12T07:17:37.328Z,98.05
2023-03-12T07:20:06.808Z,98.47
2023-03-12T07:22:34.976Z,99.68
2023-03-12T07:25:03.373Z,100.00
2023-03-12T07:27:31.639Z,100.00
2023-03-12T07:30:01.241Z,100.00
2023-03-12T07:32:29.481Z,100.00
2023-03-12T07:34:57.717Z,100.00
2023-03-12T07:37:25.920Z,100.00
2023-03-12T07:39:54.746Z,100.00
2023-03-12T07:42:23.574Z,100.00
2023-03-12T07:44:51.843Z,100.00
2023-03-12T07:47:24.466Z,100.00
2023-03-12T07:49:54.006Z,100.00
2023-03-12T07:52:23.525Z,100.00
2023-03-12T07:54:52.757Z,100.00
2023-03-12T07:57:21.180Z,100.00
2023-03-12T07:59:50.183Z,100.00
2023-03-12T08:02:19.232Z,100.00
2023-03-12T08:04:49.347Z,100.00
2023-03-12T08:07:17.949Z,100.00
2023-03-12T08:09:49.471Z,100.00
2023-03-12T08:12:18.307Z,100.00
2023-03-12T08:14:46.753Z,100.00
2023-03-12T08:17:15.900Z,100.00
2023-03-12T08:19:44.164Z,100.00
2023-03-12T08:22:13.820Z,100.00
2023-03-12T08:24:42.024Z,100.00
2023-03-12T08:27:12.104Z,100.00
2023-03-12T08:29:41.162Z,100.00
2023-03-12T08:32:10.595Z,100.00
2023-03-12T08:34:38.998Z,100.00
2023-03-12T08:37:07.609Z,100.00
2023-03-12T08:39:37.553Z,100.00
2023-03-12T08:42:07.693Z,100.00
2023-03-12T08:44:35.944Z,100.00
2023-03-12T08:47:04.220Z,100.00
2023-03-12T08:49:32.534Z,100.00
2023-03-12T08:52:01.134Z,100.00
2023-03-12T08:54:29.683Z,100.00
2023-03-12T08:56:59.223Z,100.00
2023-03-12T08:59:27.488Z,100.00
2023-03-12T09:01:55.659Z,100.00
2023-03-12T09:04:23.955Z,100.00
2023-03-12T09:06:52.196Z,100.00
2023-03-12T09:09:21.733Z,100.00
2023-03-12T09:11:50.048Z,100.00
2023-03-12T09:15:01.164Z,100.00
2023-03-12T09:17:08.025Z,100.00
2023-03-12T09:19:36.271Z,100.00
2023-03-12T09:22:04.505Z,99.39
2023-03-12T09:24:32.771Z,99.07
2023-03-12T09:27:01.097Z,98.28
2023-03-12T09:29:30.720Z,98.09
2023-03-12T09:31:59.684Z,98.61
2023-03-12T09:34:27.917Z,98.95
2023-03-12T09:36:56.121Z,98.52
2023-03-12T09:39:24.287Z,98.74
2023-03-12T09:41:53.157Z,98.71
2023-03-12T09:44:30.806Z,98.81
2023-03-12T09:47:03.583Z,98.46
2023-03-12T09:49:36.493Z,98.46
2023-03-12T09:52:17.719Z,99.91
2023-03-12T09:54:53.521Z,98.85
2023-03-12T09:57:25.899Z,98.54
2023-03-12T09:59:55.597Z,99.14
2023-03-12T10:02:44.731Z,97.86
2023-03-12T10:05:20.233Z,98.84
2023-03-12T10:07:53.280Z,100.00
2023-03-12T10:10:38.455Z,98.34
2023-03-12T10:13:22.412Z,98.09
2023-03-12T10:16:12.794Z,98.64
2023-03-12T10:19:05.067Z,99.31
2023-03-12T10:21:44.277Z,99.93
2023-03-12T10:24:28.855Z,99.88
2023-03-12T10:27:01.783Z,100.00
2023-03-12T10:29:34.381Z,100.00
2023-03-12T10:32:08.042Z,100.00
2023-03-12T10:34:43.082Z,100.00
2023-03-12T10:37:19.091Z,100.00
2023-03-12T10:39:48.253Z,100.00
2023-03-12T10:42:19.918Z,100.00
2023-03-12T10:44:51.616Z,100.00
2023-03-12T10:47:35.280Z,100.00
2023-03-12T10:50:17.385Z,100.00
2023-03-12T10:52:47.255Z,100.00
2023-03-12T10:55:26.207Z,100.00
2023-03-12T10:57:55.124Z,100.00
2023-03-12T11:00:26.736Z,100.00
2023-03-12T11:03:03.674Z,100.00
2023-03-12T11:05:37.650Z,100.00
2023-03-12T11:08:23.291Z,100.00
2023-03-12T11:10:53.247Z,100.00
2023-03-12T11:13:29.801Z,100.00
2023-03-12T11:15:59.933Z,100.00
2023-03-12T11:18:34.211Z,100.00
2023-03-12T11:21:19.946Z,100.00
2023-03-12T11:24:07.679Z,100.00
2023-03-12T11:26:44.166Z,100.00
2023-03-12T11:29:24.113Z,100.00
2023-03-12T11:34:55.485Z,100.00
2023-03-12T11:37:38.551Z,100.00
2023-03-12T11:40:20.352Z,100.00
2023-03-12T11:43:07.552Z,100.00
2023-03-12T11:45:47.997Z,100.00
2023-03-12T11:48:25.767Z,100.00
2023-03-12T11:51:13.525Z,100.00
2023-03-12T11:53:59.092Z,100.00
2023-03-12T11:56:30.719Z,100.00
2023-03-12T11:59:24.890Z,100.00
2023-03-12T12:02:11.745Z,100.00
2023-03-12T12:05:11.351Z,100.00
2023-03-12T12:07:55.559Z,100.00
2023-03-12T12:10:29.839Z,100.00
2023-03-12T12:13:09.725Z,100.00
2023-03-12T12:15:48.957Z,100.00
2023-03-12T12:18:36.959Z,100.00
2023-03-12T12:21:13.946Z,100.00
2023-03-12T12:23:55.293Z,100.00
2023-03-12T12:26:30.609Z,100.00
2023-03-12T12:29:22.593Z,100.00
2023-03-12T12:31:56.070Z,100.00
2023-03-12T12:35:04.777Z,100.00
2023-03-12T12:37:46.337Z,100.00
2023-03-12T12:40:25.408Z,100.00
2023-03-12T12:43:24.705Z,100.00
2023-03-12T12:45:57.118Z,100.00
2023-03-12T12:48:33.683Z,100.00
2023-03-12T12:51:05.205Z,100.00
2023-03-12T12:53:43.940Z,100.00
2023-03-12T12:56:23.063Z,100.00
2023-03-12T12:59:27.171Z,100.00
2023-03-12T13:01:57.632Z,100.00
2023-03-12T13:04:29.901Z,100.00
2023-03-12T13:07:03.145Z,100.00
2023-03-12T13:09:41.629Z,100.00
2023-03-12T13:12:20.007Z,100.00
2023-03-12T13:14:49.376Z,100.00
2023-03-12T13:17:28.285Z,100.00
2023-03-12T13:20:12.058Z,100.00
2023-03-12T13:22:56.660Z,100.00
2023-03-12T13:25:40.901Z,100.00
2023-03-12T13:28:41.957Z,100.00
2023-03-12T13:31:39.644Z,100.00
2023-03-12T13:34:55.176Z,100.00
2023-03-12T13:38:01.095Z,100.00
2023-03-12T13:41:02.418Z,100.00
2023-03-12T13:43:51.552Z,100.00
2023-03-12T13:46:44.206Z,100.00
2023-03-12T13:49:19.078Z,100.00
2023-03-12T13:52:02.439Z,100.00
2023-03-12T13:54:36.054Z,100.00
2023-03-12T13:57:12.352Z,100.00
2023-03-12T13:59:47.139Z,100.00
2023-03-12T14:02:25.264Z,100.00
2023-03-12T14:04:54.200Z,100.00
2023-03-12T14:08:12.069Z,100.00
2023-03-12T14:11:08.300Z,100.00
2023-03-12T14:14:08.462Z,100.00
2023-03-12T14:16:43.228Z,100.00
2023-03-12T14:19:15.445Z,100.00
2023-03-12T14:21:46.766Z,100.00
2023-03-12T14:24:25.900Z,100.00
2023-03-12T14:26:55.234Z,100.00
2023-03-12T14:29:29.536Z,100.00
2023-03-12T14:32:05.486Z,100.00
2023-03-12T14:34:40.306Z,100.00
2023-03-12T14:37:16.437Z,100.00
2023-03-12T14:39:50.628Z,100.00
2023-03-12T14:42:26.092Z,100.00
2023-03-12T14:45:01.502Z,100.00
2023-03-12T14:47:31.342Z,100.00
2023-03-12T14:49:59.732Z,100.00
2023-03-12T14:52:30.669Z,100.00
2023-03-12T14:55:01.278Z,100.00
2023-03-12T14:57:29.780Z,100.00
2023-03-12T15:00:00.182Z,100.00
2023-03-12T15:02:32.937Z,100.00
2023-03-12T15:05:03.481Z,100.00
2023-03-12T15:07:44.400Z,100.00
2023-03-12T15:10:22.015Z,100.00
2023-03-12T15:12:51.690Z,100.00
2023-03-12T15:15:36.286Z,100.00
2023-03-12T15:18:08.921Z,100.00
2023-03-12T15:20:37.537Z,100.00
2023-03-12T15:23:07.040Z,100.00
2023-03-12T15:25:36.116Z,100.00
2023-03-12T15:28:25.572Z,100.00
2023-03-12T15:31:11.780Z,100.00
2023-03-12T15:33:43.402Z,100.00
2023-03-12T15:36:30.781Z,100.00
2023-03-12T15:39:05.489Z,100.00
2023-03-12T15:41:44.001Z,100.00
2023-03-12T15:44:20.832Z,100.00
2023-03-12T15:46:51.972Z,99.58
2023-03-12T15:49:25.616Z,99.72
2023-03-12T15:52:04.853Z,98.58
2023-03-12T15:54:34.296Z,98.40
2023-03-12T15:57:24.169Z,97.61
2023-03-12T16:00:15.437Z,97.59
2023-03-12T16:02:54.226Z,97.55
2023-03-12T16:05:27.164Z,98.67
2023-03-12T16:07:55.567Z,98.57
2023-03-12T16:10:27.053Z,98.25
2023-03-12T16:13:02.978Z,97.98
2023-03-12T16:15:34.180Z,97.58
2023-03-12T16:18:02.696Z,99.11
2023-03-12T16:20:32.491Z,99.70
2023-03-12T16:23:00.710Z,99.04
2023-03-12T16:25:29.173Z,99.26
2023-03-12T16:27:59.896Z,98.87
2023-03-12T16:30:32.183Z,98.69
2023-03-12T16:33:03.210Z,98.46
2023-03-12T16:35:34.162Z,98.60
2023-03-12T16:38:07.071Z,97.76
2023-03-12T16:40:39.044Z,96.87
2023-03-12T16:43:15.015Z,96.13
2023-03-12T16:45:46.812Z,95.89
2023-03-12T16:48:18.656Z,94.88
2023-03-12T16:50:52.194Z,94.49
2023-03-12T16:53:21.588Z,94.11
2023-03-12T16:55:53.650Z,93.18
2023-03-12T16:58:24.599Z,93.21
2023-03-12T17:00:54.702Z,92.46
2023-03-12T17:03:33.783Z,91.87
2023-03-12T17:06:07.580Z,91.51
2023-03-12T17:08:36.149Z,91.46
2023-03-12T17:11:18.198Z,91.02
2023-03-12T17:13:52.105Z,90.91
2023-03-12T17:16:21.010Z,90.87
2023-03-12T17:18:49.603Z,90.95
2023-03-12T17:21:22.294Z,90.51
2023-03-12T17:23:51.862Z,90.86
2023-03-12T17:26:20.853Z,91.58
2023-03-12T17:28:49.290Z,91.70
2023-03-12T17:31:17.793Z,92.32
2023-03-12T17:33:46.391Z,92.37
2023-03-12T17:36:15.038Z,92.64
2023-03-12T17:38:44.981Z,92.83
2023-03-12T17:41:25.630Z,92.96
2023-03-12T17:43:58.478Z,92.82
2023-03-12T17:46:26.847Z,92.72
2023-03-12T17:48:55.678Z,93.20
2023-03-12T17:51:25.280Z,93.40
2023-03-12T17:53:54.900Z,94.02
2023-03-12T17:56:23.460Z,93.87
2023-03-12T17:58:51.620Z,93.90
2023-03-12T18:01:19.989Z,94.20
2023-03-12T18:03:50.054Z,94.63
2023-03-12T18:06:19.843Z,94.96
2023-03-12T18:08:48.242Z,94.87
2023-03-12T18:11:17.796Z,95.03
2023-03-12T18:13:48.430Z,94.87
2023-03-12T18:16:19.138Z,95.46
2023-03-12T18:18:52.117Z,95.60
2023-03-12T18:21:20.840Z,95.20
2023-03-12T18:23:51.038Z,95.80
2023-03-12T18:26:20.707Z,95.56
2023-03-12T18:28:49.677Z,95.08
2023-03-12T18:31:17.999Z,95.06
2023-03-12T18:33:46.621Z,95.42
2023-03-12T18:36:15.173Z,95.53
2023-03-12T18:38:44.765Z,95.06
2023-03-12T18:41:14.989Z,94.88
2023-03-12T18:43:45.196Z,95.31
2023-03-12T18:46:13.948Z,94.80
2023-03-12T18:48:44.178Z,95.21
2023-03-12T18:51:12.696Z,95.36
2023-03-12T18:53:41.361Z,95.09
2023-03-12T18:56:09.755Z,95.58
2023-03-12T18:58:38.542Z,95.34
2023-03-12T19:01:09.068Z,95.44
2023-03-12T19:03:37.489Z,95.20
2023-03-12T19:06:09.063Z,95.12
2023-03-12T19:08:38.210Z,94.93
2023-03-12T19:11:07.286Z,94.40
2023-03-12T19:13:35.657Z,94.30
2023-03-12T19:16:08.245Z,93.96
2023-03-12T19:18:39.259Z,94.28
2023-03-12T19:21:08.954Z,93.60
2023-03-12T19:23:37.272Z,93.90
2023-03-12T19:26:07.516Z,94.23
2023-03-12T19:28:36.719Z,93.84
2023-03-12T19:31:07.681Z,94.07
2023-03-12T19:33:38.038Z,94.20
2023-03-12T19:36:07.380Z,94.22
2023-03-12T19:38:35.824Z,94.45
2023-03-12T19:41:04.148Z,94.27
2023-03-12T19:43:32.334Z,94.32
2023-03-12T19:46:00.635Z,93.54
2023-03-12T19:48:28.964Z,92.42
2023-03-12T19:50:58.644Z,91.99
2023-03-12T19:53:26.977Z,91.58
2023-03-12T19:55:55.525Z,91.58
2023-03-12T19:58:23.798Z,91.27
2023-03-12T20:00:51.996Z,90.25
2023-03-12T20:03:20.739Z,89.54
2023-03-12T20:05:50.493Z,89.40
2023-03-12T20:08:20.905Z,89.52
2023-03-12T20:10:49.470Z,89.43
2023-03-12T20:13:18.592Z,89.50
2023-03-12T20:15:48.448Z,89.53
2023-03-12T20:18:17.248Z,89.36
2023-03-12T20:20:47.619Z,89.28
2023-03-12T20:23:16.086Z,89.28
2023-03-12T20:25:49.891Z,89.12
2023-03-12T20:28:18.811Z,88.71
2023-03-12T20:30:47.017Z,88.86
2023-03-12T20:33:15.328Z,89.17
2023-03-12T20:35:43.560Z,89.44
2023-03-12T20:38:11.772Z,89.39
2023-03-12T20:40:40.472Z,89.59
2023-03-12T20:43:10.127Z,89.10
2023-03-12T20:45:38.354Z,89.54
2023-03-12T20:48:07.341Z,89.28
2023-03-12T20:50:39.745Z,90.10
2023-03-12T20:53:08.637Z,89.24
2023-03-12T20:55:39.518Z,89.53
2023-03-12T20:58:09.131Z,89.82
2023-03-12T21:00:37.341Z,90.04
2023-03-12T21:03:05.735Z,90.41
2023-03-12T21:05:34.097Z,90.44
2023-03-12T21:08:08.653Z,90.39
2023-03-12T21:11:03.245Z,90.28
2023-03-12T21:13:32.878Z,90.15
2023-03-12T21:16:01.193Z,90.42
2023-03-12T21:18:29.377Z,90.42
2023-03-12T21:21:03.391Z,90.64
2023-03-12T21:23:32.095Z,90.34
2023-03-12T21:26:09.224Z,90.01
2023-03-12T21:28:39.164Z,90.03
2023-03-12T21:31:08.628Z,90.22
2023-03-12T21:33:37.600Z,89.54
2023-03-12T21:36:07.155Z,89.68
2023-03-12T21:38:36.145Z,90.00
2023-03-12T21:41:07.058Z,89.82
2023-03-12T21:43:35.316Z,89.49
2023-03-12T21:46:09.828Z,89.55
2023-03-12T21:48:38.142Z,89.44
2023-03-12T21:51:08.882Z,88.90
2023-03-12T21:53:41.858Z,89.03
2023-03-12T21:56:10.960Z,88.55
2023-03-12T21:58:39.442Z,88.91
2023-03-12T22:01:12.002Z,88.73
2023-03-12T22:03:41.789Z,88.45
2023-03-12T22:06:10.833Z,88.65
2023-03-12T22:08:40.240Z,87.85
2023-03-12T22:11:09.531Z,87.86
2023-03-12T22:13:38.632Z,87.91
2023-03-12T22:16:09.914Z,88.48
2023-03-12T22:18:40.867Z,87.90
2023-03-12T22:21:13.292Z,88.14
2023-03-12T22:23:41.512Z,88.41
2023-03-12T22:26:10.137Z,88.55
2023-03-12T22:28:38.375Z,88.47
2023-03-12T22:31:10.749Z,88.59
2023-03-12T22:33:39.106Z,88.10
2023-03-12T22:36:10.515Z,88.48
2023-03-12T22:38:39.876Z,87.98
2023-03-12T22:41:17.141Z,88.50
2023-03-12T22:43:46.377Z,88.19
2023-03-12T22:46:16.864Z,88.42
2023-03-12T22:48:45.468Z,88.09
2023-03-12T22:51:14.774Z,88.42
2023-03-12T22:53:43.014Z,88.39
2023-03-12T22:56:14.110Z,88.47
2023-03-12T22:58:42.736Z,88.58
2023-03-12T23:01:13.639Z,88.61
2023-03-12T23:04:10.887Z,88.67
2023-03-12T23:06:39.156Z,88.26
2023-03-12T23:09:07.854Z,88.59
2023-03-12T23:11:38.834Z,88.44
2023-03-12T23:14:06.987Z,88.54
2023-03-12T23:16:35.361Z,88.76
2023-03-12T23:19:05.004Z,88.77
2023-03-12T23:21:33.218Z,88.98
2023-03-12T23:24:01.386Z,88.79
2023-03-12T23:26:30.209Z,88.55
2023-03-12T23:29:00.134Z,88.66
2023-03-12T23:31:29.116Z,88.56
2023-03-12T23:33:58.494Z,88.29
2023-03-12T23:36:28.496Z,88.37
2023-03-12T23:38:56.909Z,87.92
2023-03-12T23:41:26.941Z,88.60
2023-03-12T23:43:55.105Z,88.49
2023-03-12T23:46:23.369Z,88.40
2023-03-12T23:48:51.910Z,88.89
2023-03-12T23:51:22.872Z,89.11
2023-03-12T23:53:55.673Z,89.28
2023-03-12T23:56:27.029Z,89.49
2023-03-12T23:58:55.707Z,89.81
